Time;durP1;ratioP1;P1;durP2;ratioP2;P2;SDS_P1;SDS_P2;PMS_P1;PMS_P2;Temp;Humidity;BMP_temperature;BMP_pressure;BME280_temperature;BME280_humidity;BME280_pressure;Samples;Min_cycle;Max_cycle;Signal;HPM_P1;HPM_P2
2023/12/26 00:02:42;;;;;;;;;;;9.80;99.90;;;;;;5049384;28;19995;-76
2023/12/26 00:05:28;;;;;;;;;;;9.90;99.90;;;;;;5047077;28;19916;-76
2023/12/26 00:08:14;;;;;;;;;;;9.90;99.90;;;;;;5059115;28;19924;-76
2023/12/26 00:11:00;;;;;;;;;;;9.90;99.90;;;;;;5044129;28;20290;-76
2023/12/26 00:13:46;;;;;;;;;;;9.90;99.90;;;;;;5044185;28;19973;-76
2023/12/26 00:16:32;;;;;;;;;;;9.90;99.90;;;;;;5063005;28;19935;-76
2023/12/26 00:19:18;;;;;;;;;;;10.00;99.90;;;;;;5059865;28;20023;-76
2023/12/26 00:22:03;;;;;;;;;;;10.00;99.90;;;;;;5042842;28;19917;-77
2023/12/26 00:24:49;;;;;;;;;;;10.10;99.90;;;;;;5067173;28;19916;-77
2023/12/26 00:27:37;;;;;;;;;;;10.10;99.90;;;;;;5070639;28;20000;-76
2023/12/26 00:30:24;;;;;;;;;;;10.20;99.90;;;;;;5057029;28;19917;-75
2023/12/26 00:33:10;;;;;;;;;;;10.20;99.90;;;;;;5060867;28;19925;-75
2023/12/26 00:35:58;;;;;;;;;;;10.20;99.90;;;;;;5060753;28;20233;-75
2023/12/26 00:38:45;;;;;;;;;;;10.20;99.90;;;;;;5072685;28;19955;-76
2023/12/26 00:41:31;;;;;;;;;;;10.30;99.90;;;;;;5055430;28;20248;-76
2023/12/26 00:44:17;;;;;;;;;;;10.30;99.90;;;;;;5055353;28;19927;-75
2023/12/26 00:47:03;;;;;;;;;;;10.30;99.90;;;;;;5070560;28;20358;-76
2023/12/26 00:49:49;;;;;;;;;;;10.30;99.90;;;;;;5046566;28;20004;-76
2023/12/26 00:52:35;;;;;;;;;;;10.30;99.90;;;;;;5040338;28;19927;-76
2023/12/26 00:55:22;;;;;;;;;;;10.40;99.90;;;;;;5055656;28;19999;-77
2023/12/26 00:58:08;;;;;;;;;;;10.40;99.90;;;;;;5068511;28;19998;-76
2023/12/26 01:00:54;;;;;;;;;;;10.40;99.90;;;;;;5068335;28;20332;-76
2023/12/26 01:03:40;;;;;;;;;;;10.40;99.90;;;;;;5069241;28;19921;-76
2023/12/26 01:06:26;;;;;;;;;;;10.40;99.90;;;;;;5056912;28;19916;-76
2023/12/26 01:09:12;;;;;;;;;;;10.50;99.90;;;;;;5059606;28;19956;-76
2023/12/26 01:11:58;;;;;;;;;;;10.50;99.90;;;;;;5063571;28;19916;-77
2023/12/26 01:14:44;;;;;;;;;;;10.50;99.90;;;;;;5042227;28;19924;-76
2023/12/26 01:17:30;;;;;;;;;;;10.60;99.90;;;;;;5053139;28;20414;-76
2023/12/26 01:20:16;;;;;;;;;;;10.50;99.90;;;;;;5038798;28;20348;-78
2023/12/26 01:23:02;;;;;;;;;;;10.60;99.90;;;;;;5055992;28;19974;-76
2023/12/26 01:25:48;;;;;;;;;;;10.60;99.90;;;;;;5057984;28;19917;-76
2023/12/26 01:28:34;;;;;;;;;;;10.60;99.90;;;;;;5052958;28;20049;-76
2023/12/26 01:31:20;;;;;;;;;;;10.60;99.90;;;;;;5060116;28;19927;-76
2023/12/26 01:34:06;;;;;;;;;;;10.60;99.90;;;;;;5068786;28;19916;-76
2023/12/26 01:36:52;;;;;;;;;;;10.60;99.90;;;;;;5050207;28;20329;-76
2023/12/26 01:39:38;;;;;;;;;;;10.70;99.90;;;;;;5053705;28;20023;-76
2023/12/26 01:42:24;;;;;;;;;;;10.70;99.90;;;;;;5059232;28;19920;-76
2023/12/26 01:45:10;;;;;;;;;;;10.70;99.90;;;;;;5062004;28;19978;-76
2023/12/26 01:47:56;;;;;;;;;;;10.70;99.90;;;;;;5070422;28;19938;-76
2023/12/26 01:50:42;;;;;;;;;;;10.70;99.90;;;;;;5064346;28;19916;-76
2023/12/26 01:53:27;;;;;;;;;;;10.70;99.90;;;;;;5058294;28;19951;-76
2023/12/26 01:56:15;;;;;;;;;;;10.70;99.90;;;;;;5061613;28;19916;-77
2023/12/26 01:59:02;;;;;;;;;;;10.70;99.90;;;;;;5054987;28;19916;-76
2023/12/26 02:01:48;;;;;;;;;;;10.70;99.90;;;;;;5048634;28;19917;-76
2023/12/26 02:04:34;;;;;;;;;;;10.70;99.90;;;;;;5045402;28;19966;-77
2023/12/26 02:07:21;;;;;;;;;;;10.70;99.90;;;;;;5058015;28;19921;-76
2023/12/26 02:10:07;;;;;;;;;;;10.70;99.90;;;;;;5054124;28;19925;-77
2023/12/26 02:12:53;;;;;;;;;;;10.70;99.90;;;;;;5051594;28;19916;-76
2023/12/26 02:15:41;;;;;;;;;;;10.70;99.90;;;;;;5070224;28;19913;-76
2023/12/26 02:18:27;;;;;;;;;;;10.70;99.90;;;;;;5067008;28;19920;-77
2023/12/26 02:21:13;;;;;;;;;;;10.70;99.90;;;;;;5049205;28;20352;-76
2023/12/26 02:23:59;;;;;;;;;;;10.70;99.90;;;;;;5064235;28;19990;-75
2023/12/26 02:26:45;;;;;;;;;;;10.70;99.90;;;;;;5069531;28;19916;-76
2023/12/26 02:29:31;;;;;;;;;;;10.70;99.90;;;;;;5057541;28;19920;-76
2023/12/26 02:32:18;;;;;;;;;;;10.70;99.90;;;;;;5054267;28;19917;-76
2023/12/26 02:35:05;;;;;;;;;;;10.70;99.90;;;;;;5035066;28;19968;-77
2023/12/26 02:37:51;;;;;;;;;;;10.50;99.90;;;;;;5042396;28;19917;-78
2023/12/26 02:40:36;;;;;;;;;;;10.30;99.90;;;;;;5025690;28;19917;-76
2023/12/26 02:43:22;;;;;;;;;;;10.20;99.90;;;;;;5059991;28;19944;-77
2023/12/26 02:46:08;;;;;;;;;;;10.00;99.90;;;;;;5029476;28;20325;-76
2023/12/26 02:48:54;;;;;;;;;;;10.00;99.90;;;;;;5051167;28;20329;-76
2023/12/26 02:51:40;;;;;;;;;;;9.90;99.90;;;;;;5032630;28;20373;-77
2023/12/26 02:54:26;;;;;;;;;;;9.90;99.90;;;;;;5033821;28;20317;-76
2023/12/26 02:57:12;;;;;;;;;;;9.90;99.90;;;;;;5026620;28;19917;-76
2023/12/26 02:59:58;;;;;;;;;;;9.90;99.90;;;;;;5052969;28;19978;-77
2023/12/26 03:02:44;;;;;;;;;;;9.80;99.90;;;;;;5034724;28;19917;-77
2023/12/26 03:05:29;;;;;;;;;;;9.80;99.90;;;;;;5033269;28;19917;-77
2023/12/26 03:08:15;;;;;;;;;;;9.80;99.90;;;;;;5042955;28;20007;-77
2023/12/26 03:11:01;;;;;;;;;;;9.80;99.90;;;;;;5048862;28;19952;-77
2023/12/26 03:13:47;;;;;;;;;;;9.70;99.90;;;;;;5043521;28;19967;-76
2023/12/26 03:16:34;;;;;;;;;;;9.70;99.90;;;;;;5039105;28;19917;-76
2023/12/26 03:19:20;;;;;;;;;;;9.70;99.90;;;;;;5033070;28;19921;-76
2023/12/26 03:22:07;;;;;;;;;;;9.80;99.90;;;;;;5025357;28;19912;-76
2023/12/26 03:24:53;;;;;;;;;;;9.80;99.90;;;;;;5036890;28;20273;-77
2023/12/26 03:27:39;;;;;;;;;;;9.80;99.90;;;;;;5045789;28;20367;-76
2023/12/26 03:30:26;;;;;;;;;;;9.80;99.90;;;;;;5044649;28;19917;-77
2023/12/26 03:33:12;;;;;;;;;;;9.80;99.90;;;;;;5036809;28;19923;-77
2023/12/26 03:35:58;;;;;;;;;;;9.90;99.90;;;;;;5047596;28;20402;-76
2023/12/26 03:38:45;;;;;;;;;;;10.00;99.90;;;;;;5034157;28;19924;-77
2023/12/26 03:41:31;;;;;;;;;;;10.00;99.90;;;;;;5034636;28;19964;-76
2023/12/26 03:44:17;;;;;;;;;;;10.00;99.90;;;;;;5032043;28;20321;-76
2023/12/26 03:47:03;;;;;;;;;;;10.10;99.90;;;;;;5032693;28;19914;-77
2023/12/26 03:49:49;;;;;;;;;;;10.10;99.90;;;;;;5042505;28;19917;-76
2023/12/26 03:52:35;;;;;;;;;;;10.20;99.90;;;;;;5027651;28;19913;-76
2023/12/26 03:55:21;;;;;;;;;;;10.30;99.90;;;;;;5039650;28;20245;-77
2023/12/26 03:58:07;;;;;;;;;;;10.30;99.90;;;;;;5038004;28;19930;-77
2023/12/26 04:00:53;;;;;;;;;;;10.40;99.90;;;;;;5037987;28;19916;-77
2023/12/26 04:03:39;;;;;;;;;;;10.40;99.90;;;;;;5030814;28;19916;-77
2023/12/26 04:06:24;;;;;;;;;;;10.40;99.90;;;;;;5050302;28;20337;-77
2023/12/26 04:09:11;;;;;;;;;;;10.40;99.90;;;;;;5048200;28;19951;-77
2023/12/26 04:11:57;;;;;;;;;;;10.40;99.90;;;;;;5034333;28;20333;-77
2023/12/26 04:14:45;;;;;;;;;;;10.40;99.90;;;;;;5033669;28;19932;-76
2023/12/26 04:17:31;;;;;;;;;;;10.40;99.90;;;;;;5049151;28;19929;-77
2023/12/26 04:20:17;;;;;;;;;;;10.40;99.90;;;;;;5052963;28;19917;-77
2023/12/26 04:23:03;;;;;;;;;;;10.40;99.90;;;;;;5045962;28;19919;-76
2023/12/26 04:25:49;;;;;;;;;;;10.40;99.90;;;;;;5040611;28;19924;-76
2023/12/26 04:28:36;;;;;;;;;;;10.40;99.90;;;;;;5044235;28;19974;-77
2023/12/26 04:31:22;;;;;;;;;;;10.40;99.90;;;;;;5061885;28;19913;-77
2023/12/26 04:34:08;;;;;;;;;;;10.40;99.90;;;;;;5030055;28;19913;-77
2023/12/26 04:36:54;;;;;;;;;;;10.40;99.90;;;;;;5045117;28;19952;-76
2023/12/26 04:39:40;;;;;;;;;;;10.40;99.90;;;;;;5026572;28;19935;-77
2023/12/26 04:42:26;;;;;;;;;;;10.40;99.90;;;;;;5044136;28;19959;-76
2023/12/26 04:45:12;;;;;;;;;;;10.30;99.90;;;;;;5053497;28;20333;-77
2023/12/26 04:47:58;;;;;;;;;;;10.30;99.90;;;;;;5053130;28;19924;-76
2023/12/26 04:50:44;;;;;;;;;;;10.30;99.90;;;;;;5034162;28;19912;-77
2023/12/26 04:53:30;;;;;;;;;;;10.30;99.90;;;;;;5031299;28;20328;-77
2023/12/26 04:56:17;;;;;;;;;;;10.20;99.90;;;;;;5042887;28;20215;-77
2023/12/26 04:59:03;;;;;;;;;;;10.20;99.90;;;;;;5042303;28;20291;-78
2023/12/26 05:01:49;;;;;;;;;;;10.10;99.90;;;;;;5047854;28;20391;-77
2023/12/26 05:04:35;;;;;;;;;;;9.90;99.90;;;;;;5026938;28;20606;-77
2023/12/26 05:07:21;;;;;;;;;;;9.80;99.90;;;;;;5056484;28;19916;-77
2023/12/26 05:10:07;;;;;;;;;;;9.70;99.90;;;;;;5022493;28;19978;-77
2023/12/26 05:12:53;;;;;;;;;;;9.60;99.90;;;;;;5034418;28;20487;-77
2023/12/26 05:15:39;;;;;;;;;;;9.60;99.90;;;;;;5055253;28;19940;-77
2023/12/26 05:18:25;;;;;;;;;;;9.60;99.90;;;;;;5041849;28;19943;-77
2023/12/26 05:21:20;;;;;;;;;;;9.50;99.90;;;;;;5041562;28;19920;-77
2023/12/26 05:24:06;;;;;;;;;;;9.50;99.90;;;;;;5060529;28;19913;-76
2023/12/26 05:26:52;;;;;;;;;;;9.40;99.90;;;;;;5056063;28;19974;-77
2023/12/26 05:29:38;;;;;;;;;;;9.40;99.90;;;;;;5053523;28;19943;-77
2023/12/26 05:32:24;;;;;;;;;;;9.40;99.90;;;;;;5050137;28;20325;-77
2023/12/26 05:35:10;;;;;;;;;;;9.30;99.90;;;;;;5046062;28;19940;-77
2023/12/26 05:37:55;;;;;;;;;;;9.30;99.90;;;;;;5054914;28;20321;-77
2023/12/26 05:40:41;;;;;;;;;;;9.30;99.90;;;;;;5056011;28;19939;-77
2023/12/26 05:43:29;;;;;;;;;;;9.30;99.90;;;;;;5041042;28;19999;-77
2023/12/26 05:46:15;;;;;;;;;;;9.20;99.90;;;;;;5049647;28;20451;-77
2023/12/26 05:49:00;;;;;;;;;;;9.10;99.90;;;;;;5032770;28;19983;-77
2023/12/26 05:51:46;;;;;;;;;;;9.10;99.90;;;;;;5033471;28;19912;-77
2023/12/26 05:54:32;;;;;;;;;;;9.10;99.90;;;;;;5054091;28;19963;-77
2023/12/26 05:57:18;;;;;;;;;;;9.10;99.90;;;;;;5044261;28;19913;-77
2023/12/26 06:00:05;;;;;;;;;;;9.10;99.90;;;;;;5053588;28;19931;-77
2023/12/26 06:02:51;;;;;;;;;;;9.10;99.90;;;;;;5026802;28;20357;-77
2023/12/26 06:05:37;;;;;;;;;;;9.10;99.90;;;;;;5042267;28;19913;-77
2023/12/26 06:08:24;;;;;;;;;;;9.10;99.90;;;;;;5051145;28;20008;-77
2023/12/26 06:11:10;;;;;;;;;;;9.00;99.90;;;;;;5033806;28;19917;-77
2023/12/26 06:13:57;;;;;;;;;;;9.00;99.90;;;;;;5035702;28;19917;-76
2023/12/26 06:16:43;;;;;;;;;;;9.10;99.90;;;;;;5031708;28;19924;-77
2023/12/26 06:19:29;;;;;;;;;;;9.00;99.90;;;;;;5053172;28;19920;-77
2023/12/26 06:22:14;;;;;;;;;;;9.00;99.90;;;;;;5040697;28;19913;-77
2023/12/26 06:25:00;;;;;;;;;;;9.00;99.90;;;;;;5040063;28;20369;-76
2023/12/26 06:27:46;;;;;;;;;;;9.00;99.90;;;;;;5041135;28;19925;-76
2023/12/26 06:30:32;;;;;;;;;;;9.00;99.90;;;;;;5040816;28;20388;-76
2023/12/26 06:33:19;;;;;;;;;;;9.10;99.90;;;;;;5039253;28;19917;-75
2023/12/26 06:36:05;;;;;;;;;;;9.00;99.90;;;;;;5054397;28;20608;-75
2023/12/26 06:38:52;;;;;;;;;;;9.00;99.90;;;;;;5053233;28;19924;-75
2023/12/26 06:41:40;;;;;;;;;;;9.10;99.90;;;;;;5053829;28;19920;-75
2023/12/26 06:44:25;;;;;;;;;;;9.10;99.90;;;;;;5054025;28;19913;-75
2023/12/26 06:47:12;;;;;;;;;;;9.00;99.90;;;;;;5052209;28;20007;-75
2023/12/26 06:49:58;;;;;;;;;;;9.10;99.90;;;;;;5039109;28;19923;-75
2023/12/26 06:52:44;;;;;;;;;;;9.10;99.90;;;;;;5032465;28;19940;-74
2023/12/26 06:55:30;;;;;;;;;;;9.10;99.90;;;;;;5039880;28;19920;-75
2023/12/26 06:58:15;;;;;;;;;;;9.10;99.90;;;;;;5040228;28;20406;-75
2023/12/26 07:01:02;;;;;;;;;;;9.10;99.90;;;;;;5028277;28;19928;-75
2023/12/26 07:03:47;;;;;;;;;;;9.00;99.90;;;;;;5038903;28;19956;-75
2023/12/26 07:06:35;;;;;;;;;;;9.00;99.90;;;;;;5052880;28;19928;-75
2023/12/26 07:09:22;;;;;;;;;;;9.10;99.90;;;;;;5039839;28;19921;-75
2023/12/26 07:12:08;;;;;;;;;;;9.10;99.90;;;;;;5024384;28;19937;-75
2023/12/26 07:14:54;;;;;;;;;;;9.00;99.90;;;;;;5034283;28;20321;-75
2023/12/26 07:17:40;;;;;;;;;;;9.00;99.90;;;;;;5033914;28;19917;-75
2023/12/26 07:20:26;;;;;;;;;;;9.00;99.90;;;;;;5035761;28;20304;-75
2023/12/26 07:23:12;;;;;;;;;;;9.00;99.90;;;;;;5031338;28;20402;-75
2023/12/26 07:25:58;;;;;;;;;;;9.00;99.90;;;;;;5019893;28;19979;-75
2023/12/26 07:28:44;;;;;;;;;;;9.00;99.90;;;;;;5038018;28;19921;-75
2023/12/26 07:31:32;;;;;;;;;;;9.00;99.90;;;;;;5045788;28;20011;-75
2023/12/26 07:34:19;;;;;;;;;;;9.00;99.90;;;;;;5038619;28;19917;-75
2023/12/26 07:37:07;;;;;;;;;;;9.10;99.90;;;;;;5028560;28;19964;-75
2023/12/26 07:39:52;;;;;;;;;;;9.00;99.90;;;;;;5038521;28;19927;-75
2023/12/26 07:42:38;;;;;;;;;;;9.00;99.90;;;;;;5040915;28;19921;-75
2023/12/26 07:45:25;;;;;;;;;;;9.10;99.90;;;;;;5054882;28;19917;-75
2023/12/26 07:48:11;;;;;;;;;;;9.00;99.90;;;;;;5038271;28;20256;-76
2023/12/26 07:50:57;;;;;;;;;;;9.00;99.90;;;;;;5039013;28;19924;-76
2023/12/26 07:53:43;;;;;;;;;;;9.00;99.90;;;;;;5052121;28;20609;-75
2023/12/26 07:56:29;;;;;;;;;;;8.90;99.90;;;;;;5032269;28;19956;-75
2023/12/26 07:59:15;;;;;;;;;;;8.80;99.90;;;;;;5054548;28;19913;-76
2023/12/26 08:02:02;;;;;;;;;;;8.90;99.90;;;;;;5053164;28;19920;-75
2023/12/26 08:04:48;;;;;;;;;;;8.80;99.90;;;;;;5025322;28;20360;-76
2023/12/26 08:07:34;;;;;;;;;;;8.70;99.90;;;;;;5053475;28;19948;-75
2023/12/26 08:10:19;;;;;;;;;;;8.70;99.90;;;;;;5056741;28;20321;-75
2023/12/26 08:13:05;;;;;;;;;;;8.70;99.90;;;;;;5043372;28;19920;-75
2023/12/26 08:15:51;;;;;;;;;;;8.70;99.90;;;;;;5040186;28;19924;-75
2023/12/26 08:18:37;;;;;;;;;;;8.60;99.90;;;;;;5030108;28;19920;-75
2023/12/26 08:21:23;;;;;;;;;;;8.60;99.90;;;;;;5067157;28;19916;-75
2023/12/26 08:24:09;;;;;;;;;;;8.60;99.90;;;;;;5035753;28;19964;-75
2023/12/26 08:26:55;;;;;;;;;;;8.50;99.90;;;;;;5046029;28;19917;-75
2023/12/26 08:29:41;;;;;;;;;;;8.40;99.90;;;;;;5050182;28;19952;-74
2023/12/26 08:32:26;;;;;;;;;;;8.40;99.90;;;;;;5052542;28;19916;-77
2023/12/26 08:35:12;;;;;;;;;;;8.40;99.90;;;;;;5046735;28;19925;-76
2023/12/26 08:37:58;;;;;;;;;;;8.40;99.90;;;;;;5029097;28;19916;-77
2023/12/26 08:40:44;;;;;;;;;;;8.40;99.90;;;;;;5053957;28;19932;-77
2023/12/26 08:43:30;;;;;;;;;;;8.40;99.90;;;;;;5054702;28;19956;-77
2023/12/26 08:46:16;;;;;;;;;;;8.40;99.90;;;;;;5053819;28;20564;-77
2023/12/26 08:49:03;;;;;;;;;;;8.40;99.90;;;;;;5053226;28;20384;-76
2023/12/26 08:51:49;;;;;;;;;;;8.40;99.90;;;;;;5033354;28;20395;-77
2023/12/26 08:54:35;;;;;;;;;;;8.40;99.90;;;;;;5024233;28;19967;-77
2023/12/26 08:57:21;;;;;;;;;;;8.40;99.90;;;;;;5049571;28;20006;-77
2023/12/26 09:00:07;;;;;;;;;;;8.40;99.90;;;;;;5037720;28;19920;-77
2023/12/26 09:02:53;;;;;;;;;;;8.40;99.90;;;;;;5037527;28;19921;-77
2023/12/26 09:05:40;;;;;;;;;;;8.50;99.90;;;;;;5023904;28;19960;-77
2023/12/26 09:08:26;;;;;;;;;;;8.50;99.90;;;;;;5047041;28;19944;-77
2023/12/26 09:11:12;;;;;;;;;;;8.50;99.90;;;;;;5036759;28;20377;-77
2023/12/26 09:13:58;;;;;;;;;;;8.50;99.90;;;;;;5022683;28;19932;-77
2023/12/26 09:16:44;;;;;;;;;;;8.60;99.90;;;;;;5035664;28;19921;-78
2023/12/26 09:19:30;;;;;;;;;;;8.60;99.90;;;;;;5031467;28;19925;-78
2023/12/26 09:22:16;;;;;;;;;;;8.70;99.90;;;;;;5028287;28;19921;-76
2023/12/26 09:25:03;;;;;;;;;;;8.70;99.90;;;;;;5035902;28;19932;-76
2023/12/26 09:27:49;;;;;;;;;;;8.80;99.90;;;;;;5049019;28;19912;-76
2023/12/26 09:30:35;;;;;;;;;;;8.80;99.90;;;;;;5042058;28;19928;-76
2023/12/26 09:33:24;;;;;;;;;;;8.90;99.90;;;;;;5037886;28;19956;-76
2023/12/26 09:36:10;;;;;;;;;;;8.90;99.90;;;;;;5049548;28;19932;-76
2023/12/26 09:38:56;;;;;;;;;;;8.90;99.90;;;;;;5045585;28;19917;-76
2023/12/26 09:41:43;;;;;;;;;;;8.90;99.90;;;;;;5038722;28;19921;-75
2023/12/26 09:44:28;;;;;;;;;;;8.90;99.90;;;;;;5024846;28;19975;-79
2023/12/26 09:47:14;;;;;;;;;;;8.90;99.90;;;;;;5044575;28;20309;-76
2023/12/26 09:50:00;;;;;;;;;;;9.00;99.90;;;;;;5048565;28;19931;-76
2023/12/26 09:52:53;;;;;;;;;;;9.00;99.90;;;;;;5038804;28;19917;-76
2023/12/26 09:55:39;;;;;;;;;;;9.10;99.90;;;;;;5033639;28;19952;-76
2023/12/26 09:58:26;;;;;;;;;;;9.20;99.90;;;;;;5025337;28;19947;-77
2023/12/26 10:01:13;;;;;;;;;;;9.20;99.90;;;;;;5029697;28;20260;-78
2023/12/26 10:03:59;;;;;;;;;;;9.30;99.90;;;;;;5030662;28;19917;-75
2023/12/26 10:06:45;;;;;;;;;;;9.30;99.90;;;;;;5020067;28;19924;-76
2023/12/26 10:09:30;;;;;;;;;;;9.50;99.90;;;;;;5050807;28;19998;-75
2023/12/26 10:12:17;;;;;;;;;;;9.50;99.90;;;;;;5033903;28;19921;-75
2023/12/26 10:15:04;;;;;;;;;;;9.60;99.90;;;;;;5050602;28;20348;-75
2023/12/26 10:17:51;;;;;;;;;;;9.70;99.90;;;;;;5036496;28;19924;-75
2023/12/26 10:20:37;;;;;;;;;;;9.60;99.90;;;;;;5038111;28;20395;-76
2023/12/26 10:23:22;;;;;;;;;;;9.60;99.90;;;;;;5029283;28;19917;-76
2023/12/26 10:26:08;;;;;;;;;;;9.50;99.90;;;;;;5037991;28;19956;-75
2023/12/26 10:28:54;;;;;;;;;;;9.50;99.90;;;;;;5021340;28;20290;-75
2023/12/26 10:31:40;;;;;;;;;;;9.40;99.90;;;;;;5046165;28;19931;-77
2023/12/26 10:34:26;;;;;;;;;;;9.40;99.90;;;;;;5025666;28;20261;-78
2023/12/26 10:37:12;;;;;;;;;;;9.30;99.90;;;;;;5034844;28;19912;-77
2023/12/26 10:39:58;;;;;;;;;;;9.30;99.90;;;;;;5026047;28;20292;-75
2023/12/26 10:42:44;;;;;;;;;;;9.30;99.90;;;;;;5036718;28;19913;-75
2023/12/26 10:45:30;;;;;;;;;;;9.20;99.90;;;;;;5035984;28;19921;-75
2023/12/26 10:48:17;;;;;;;;;;;9.20;99.90;;;;;;5030949;28;19917;-76
2023/12/26 10:51:03;;;;;;;;;;;9.20;99.90;;;;;;5047763;28;19928;-76
2023/12/26 10:53:49;;;;;;;;;;;9.30;99.90;;;;;;5037140;28;20325;-76
2023/12/26 10:56:35;;;;;;;;;;;9.30;99.90;;;;;;5050395;28;19913;-77
2023/12/26 13:52:14;;;;;;;;;;;9.80;99.90;;;;;;5047111;28;19913;-80
2023/12/26 13:55:03;;;;;;;;;;;10.00;99.90;;;;;;5046759;28;19928;-80
2023/12/26 13:57:49;;;;;;;;;;;9.90;99.90;;;;;;5042062;28;19917;-80
2023/12/26 14:00:35;;;;;;;;;;;9.60;99.90;;;;;;5047638;28;19916;-80
2023/12/26 14:03:26;;;;;;;;;;;9.70;99.90;;;;;;5034654;28;19917;-79
2023/12/26 14:06:12;;;;;;;;;;;9.60;99.90;;;;;;5033462;28;19913;-80
2023/12/26 14:09:00;;;;;;;;;;;9.50;99.90;;;;;;5062170;28;20019;-80
2023/12/26 14:11:46;;;;;;;;;;;9.50;99.90;;;;;;5060703;28;19941;-80
2023/12/26 14:14:34;;;;;;;;;;;9.40;99.90;;;;;;5050286;28;20240;-80
2023/12/26 14:17:20;;;;;;;;;;;9.40;99.90;;;;;;5036296;28;20373;-80
2023/12/26 14:20:06;;;;;;;;;;;9.40;99.90;;;;;;5034688;28;19924;-79
2023/12/26 14:22:52;;;;;;;;;;;9.30;99.90;;;;;;5037373;28;19924;-80
2023/12/26 14:25:38;;;;;;;;;;;9.30;99.90;;;;;;5031871;28;19917;-79
2023/12/26 14:28:26;;;;;;;;;;;9.30;99.90;;;;;;5047935;28;19917;-80
2023/12/26 14:31:15;;;;;;;;;;;9.20;99.90;;;;;;5033233;28;19913;-79
2023/12/26 14:34:01;;;;;;;;;;;9.20;99.90;;;;;;5045091;28;20393;-79
2023/12/26 14:36:58;;;;;;;;;;;9.20;99.90;;;;;;5054130;28;20012;-80
2023/12/26 14:39:44;;;;;;;;;;;9.20;99.90;;;;;;5039118;28;19921;-80
2023/12/26 14:42:29;;;;;;;;;;;9.10;99.90;;;;;;5045171;28;20313;-80
2023/12/26 14:45:21;;;;;;;;;;;9.10;99.90;;;;;;5059468;28;19913;-80
2023/12/26 14:48:07;;;;;;;;;;;9.10;99.90;;;;;;5048774;28;19913;-80
2023/12/26 14:50:56;;;;;;;;;;;9.10;99.90;;;;;;5041854;28;19917;-80
2023/12/26 14:53:42;;;;;;;;;;;9.00;99.90;;;;;;5051800;28;19926;-78
2023/12/26 14:56:31;;;;;;;;;;;9.00;99.90;;;;;;5058929;28;20347;-80
2023/12/26 14:59:17;;;;;;;;;;;9.00;99.90;;;;;;5055306;28;20245;-80
2023/12/26 15:02:03;;;;;;;;;;;8.80;99.90;;;;;;5058128;28;20670;-80
2023/12/26 15:04:49;;;;;;;;;;;8.60;99.90;;;;;;5025434;28;19928;-79
2023/12/26 15:07:38;;;;;;;;;;;8.60;99.90;;;;;;5043580;28;19917;-80
2023/12/26 15:10:24;;;;;;;;;;;8.50;99.90;;;;;;5027373;28;19913;-80
2023/12/26 15:13:10;;;;;;;;;;;8.60;99.90;;;;;;5048890;28;20360;-80
2023/12/26 15:15:56;;;;;;;;;;;8.60;99.90;;;;;;5043355;28;19912;-80
2023/12/26 15:18:42;;;;;;;;;;;8.50;99.90;;;;;;5056901;28;19944;-80
2023/12/26 15:21:28;;;;;;;;;;;8.60;99.90;;;;;;5038368;28;19921;-80
2023/12/26 15:24:14;;;;;;;;;;;8.60;99.90;;;;;;5026875;28;20496;-80
2023/12/26 15:27:00;;;;;;;;;;;8.50;99.90;;;;;;5042153;28;19913;-80
2023/12/26 15:29:47;;;;;;;;;;;8.60;99.90;;;;;;5029951;28;19973;-80
2023/12/26 15:32:33;;;;;;;;;;;8.60;99.90;;;;;;5041196;28;20000;-80
2023/12/26 15:35:21;;;;;;;;;;;8.60;99.90;;;;;;5043079;28;19924;-80
2023/12/26 15:38:10;;;;;;;;;;;8.60;99.90;;;;;;5057762;28;19963;-80
2023/12/26 15:40:56;;;;;;;;;;;8.70;99.90;;;;;;5028490;28;19927;-80
2023/12/26 15:43:43;;;;;;;;;;;8.70;99.90;;;;;;5027224;28;19912;-80
2023/12/26 15:46:28;;;;;;;;;;;8.70;99.90;;;;;;5044337;28;19928;-79
2023/12/26 15:49:14;;;;;;;;;;;8.70;99.90;;;;;;5039032;28;19940;-80
2023/12/26 15:52:11;;;;;;;;;;;8.70;99.90;;;;;;5040704;28;19921;-80
2023/12/26 15:55:00;;;;;;;;;;;8.70;99.90;;;;;;5044915;28;20302;-80
2023/12/26 15:57:46;;;;;;;;;;;8.70;99.90;;;;;;5036059;28;19952;-79
2023/12/26 16:00:32;;;;;;;;;;;8.70;99.90;;;;;;5041830;28;19923;-80
2023/12/26 16:03:21;;;;;;;;;;;8.70;99.90;;;;;;5039267;28;19913;-77
2023/12/26 16:06:07;;;;;;;;;;;8.70;99.90;;;;;;5039888;28;19970;-79
2023/12/26 16:08:56;;;;;;;;;;;8.60;99.90;;;;;;5048919;28;19916;-78
2023/12/26 16:11:47;;;;;;;;;;;8.60;99.90;;;;;;5036655;28;19913;-80
2023/12/26 16:14:33;;;;;;;;;;;8.50;99.90;;;;;;5045585;28;20386;-79
2023/12/26 16:17:23;;;;;;;;;;;8.50;99.90;;;;;;5052629;28;20387;-79
2023/12/26 16:20:09;;;;;;;;;;;8.50;99.90;;;;;;5053844;28;19924;-79
2023/12/26 16:22:55;;;;;;;;;;;8.40;99.90;;;;;;5045889;28;19913;-80
2023/12/26 16:25:45;;;;;;;;;;;8.40;99.90;;;;;;5029082;28;20007;-78
2023/12/26 16:28:32;;;;;;;;;;;8.30;99.90;;;;;;5045345;28;20245;-79
2023/12/26 16:31:18;;;;;;;;;;;8.30;99.90;;;;;;5045123;28;20367;-79
2023/12/26 16:34:04;;;;;;;;;;;8.30;99.90;;;;;;5056498;28;19970;-79
2023/12/26 16:36:50;;;;;;;;;;;8.20;99.90;;;;;;5057639;28;19978;-80
2023/12/26 16:39:36;;;;;;;;;;;8.20;99.90;;;;;;5055827;28;19917;-79
2023/12/26 16:42:22;;;;;;;;;;;8.30;99.90;;;;;;5040863;28;19913;-79
2023/12/26 16:45:08;;;;;;;;;;;8.20;99.90;;;;;;5043852;28;20245;-79
2023/12/26 16:47:54;;;;;;;;;;;8.20;99.90;;;;;;5025851;28;20371;-79
2023/12/26 16:50:40;;;;;;;;;;;8.20;99.90;;;;;;5064558;28;20277;-80
2023/12/26 16:53:26;;;;;;;;;;;8.20;99.90;;;;;;5043704;28;19917;-80
2023/12/26 16:56:13;;;;;;;;;;;8.20;99.90;;;;;;5031901;28;19917;-79
2023/12/26 16:58:59;;;;;;;;;;;8.10;99.90;;;;;;5032579;28;19913;-80
2023/12/26 17:01:45;;;;;;;;;;;8.20;99.90;;;;;;5071464;28;20012;-79
2023/12/26 17:04:30;;;;;;;;;;;8.20;99.90;;;;;;5030953;28;19936;-79
2023/12/26 17:07:16;;;;;;;;;;;8.20;99.90;;;;;;5056204;28;20526;-79
2023/12/26 17:10:03;;;;;;;;;;;8.20;99.90;;;;;;5054887;28;19913;-80
2023/12/26 17:12:48;;;;;;;;;;;8.20;99.90;;;;;;5042047;28;19913;-78
2023/12/26 17:15:36;;;;;;;;;;;8.20;99.90;;;;;;5056497;28;19917;-80
2023/12/26 17:18:22;;;;;;;;;;;8.30;99.90;;;;;;5034920;28;19992;-80
2023/12/26 17:21:08;;;;;;;;;;;8.30;99.90;;;;;;5054070;28;19917;-79
2023/12/26 17:23:54;;;;;;;;;;;8.30;99.90;;;;;;5043495;28;19992;-79
2023/12/26 17:26:40;;;;;;;;;;;8.30;99.90;;;;;;5028739;28;19970;-80
2023/12/26 17:29:25;;;;;;;;;;;8.30;99.90;;;;;;5043730;28;20005;-76
2023/12/26 17:32:11;;;;;;;;;;;8.30;99.90;;;;;;5055754;28;19912;-79
2023/12/26 17:34:57;;;;;;;;;;;8.30;99.90;;;;;;5035588;28;19921;-80
2023/12/26 17:37:43;;;;;;;;;;;8.40;99.90;;;;;;5051488;28;19924;-80
2023/12/26 17:40:29;;;;;;;;;;;8.40;99.90;;;;;;5040812;28;19932;-80
2023/12/26 17:43:15;;;;;;;;;;;8.40;99.90;;;;;;5049897;28;20305;-80
2023/12/26 17:46:01;;;;;;;;;;;8.40;99.90;;;;;;5055608;28;19920;-78
2023/12/26 17:48:47;;;;;;;;;;;8.40;99.90;;;;;;5057350;28;19965;-79
2023/12/26 17:51:33;;;;;;;;;;;8.40;99.90;;;;;;5024714;28;19956;-79
2023/12/26 17:54:22;;;;;;;;;;;8.40;99.90;;;;;;5043537;28;19999;-80
2023/12/26 17:57:08;;;;;;;;;;;8.40;99.90;;;;;;5055980;28;19912;-79
2023/12/26 17:59:54;;;;;;;;;;;8.40;99.90;;;;;;5051607;28;20264;-79
2023/12/26 18:02:40;;;;;;;;;;;8.40;99.90;;;;;;5043190;28;20000;-80
2023/12/26 18:05:26;;;;;;;;;;;8.40;99.90;;;;;;5038586;28;19913;-79
2023/12/26 18:08:12;;;;;;;;;;;8.40;99.90;;;;;;5031426;28;19963;-80
2023/12/26 18:10:58;;;;;;;;;;;8.30;99.90;;;;;;5055246;28;20317;-79
2023/12/26 18:13:44;;;;;;;;;;;8.30;99.90;;;;;;5042295;28;20004;-80
2023/12/26 18:16:30;;;;;;;;;;;8.30;99.90;;;;;;5057719;28;19978;-79
2023/12/26 18:19:15;;;;;;;;;;;8.30;99.90;;;;;;5026927;28;19917;-78
2023/12/26 18:22:01;;;;;;;;;;;8.20;99.90;;;;;;5028497;28;20321;-79
2023/12/26 18:24:48;;;;;;;;;;;8.20;99.90;;;;;;5028016;28;20249;-79
2023/12/26 18:27:33;;;;;;;;;;;8.20;99.90;;;;;;5040664;28;19928;-78
2023/12/26 18:30:19;;;;;;;;;;;8.20;99.90;;;;;;5054189;28;19948;-80
2023/12/26 18:33:05;;;;;;;;;;;8.10;99.90;;;;;;5053557;28;20324;-79
2023/12/26 18:35:51;;;;;;;;;;;8.10;99.90;;;;;;5055221;28;19948;-78
2023/12/26 18:38:37;;;;;;;;;;;8.20;99.90;;;;;;5041764;28;19912;-79
2023/12/26 18:41:25;;;;;;;;;;;8.20;99.90;;;;;;5021833;28;20480;-79
2023/12/26 18:44:14;;;;;;;;;;;8.10;99.90;;;;;;5022866;28;19917;-79
2023/12/26 18:47:00;;;;;;;;;;;7.90;99.90;;;;;;5054448;28;19912;-79
2023/12/26 18:49:47;;;;;;;;;;;7.80;99.90;;;;;;5040674;28;20003;-79
2023/12/26 18:52:33;;;;;;;;;;;7.60;99.90;;;;;;5040945;28;19916;-79
2023/12/26 18:55:21;;;;;;;;;;;7.70;99.90;;;;;;5048617;28;19992;-79
2023/12/26 18:58:07;;;;;;;;;;;7.60;99.90;;;;;;5040895;28;19962;-79
2023/12/26 19:00:53;;;;;;;;;;;7.70;99.90;;;;;;5053514;28;19921;-79
2023/12/26 19:03:41;;;;;;;;;;;7.50;99.90;;;;;;5028607;28;19921;-79
2023/12/26 19:06:27;;;;;;;;;;;7.40;99.90;;;;;;5030082;28;19970;-80
2023/12/26 19:09:13;;;;;;;;;;;7.40;99.90;;;;;;5040930;28;19921;-79
2023/12/26 19:11:59;;;;;;;;;;;7.40;99.90;;;;;;5034989;28;20351;-80